Terminal Aerodrome Forecast
Issued by NWS

Home | Current Version | Previous Version | Graphics & Text | Print | Product List | Glossary On
Versions: 1 2 3 4 5 6 7 8 9 10 11 12 13 14 15
755
FTUS43 KICT 241720
TAFCNU
TAF
KCNU 241720Z 2418/2518 31018G26KT P6SM BKN025 OVC040
     FM242100 30016G28KT P6SM BKN050
     FM250300 32011KT P6SM SCT250
     FM251300 32007KT P6SM FEW250=

USA.gov is the U.S. government's official web portal to all federal, state and local government web resources and services.